Time;durP1;ratioP1;P1;durP2;ratioP2;P2;SDS_P1;SDS_P2;PMS_P1;PMS_P2;Temp;Humidity;BMP_temperature;BMP_pressure;BME280_temperature;BME280_humidity;BME280_pressure;Samples;Min_cycle;Max_cycle;Signal;HPM_P1;HPM_P2
2022/03/28 00:03:41;;;;;;;4.50;2.28;;;12.70;74.50;;;;;;10356015;28;20021;-62
2022/03/28 00:08:42;;;;;;;4.55;2.10;;;12.60;74.50;;;;;;10359076;28;20057;-60
2022/03/28 00:13:44;;;;;;;3.28;1.90;;;12.60;74.70;;;;;;10361571;28;20038;-61
2022/03/28 00:18:45;;;;;;;5.20;2.28;;;12.50;74.60;;;;;;10347443;28;20030;-61
2022/03/28 00:23:46;;;;;;;4.57;2.42;;;12.50;74.70;;;;;;10358821;28;20056;-62
2022/03/28 00:28:47;;;;;;;4.95;2.47;;;12.50;74.70;;;;;;10358656;28;20038;-58
2022/03/28 00:33:48;;;;;;;3.35;1.92;;;12.50;74.80;;;;;;10358057;28;20057;-60
2022/03/28 00:38:51;;;;;;;5.20;2.58;;;12.50;74.80;;;;;;10358573;28;20034;-60
2022/03/28 00:43:56;;;;;;;4.40;2.30;;;12.50;74.90;;;;;;10360504;28;20026;-61
2022/03/28 00:48:57;;;;;;;6.15;2.85;;;12.50;75.00;;;;;;10360769;28;20069;-60
2022/03/28 00:53:59;;;;;;;5.55;2.42;;;12.50;75.00;;;;;;10357751;28;20580;-60
2022/03/28 00:59:00;;;;;;;5.13;2.83;;;12.40;75.00;;;;;;10350907;28;20093;-60
2022/03/28 01:04:01;;;;;;;5.55;2.72;;;12.40;75.00;;;;;;10356776;28;20048;-59
2022/03/28 01:09:02;;;;;;;4.97;2.58;;;12.40;75.10;;;;;;10357750;28;20058;-61
2022/03/28 01:14:03;;;;;;;5.43;2.78;;;12.30;75.10;;;;;;10358630;28;20550;-59
2022/03/28 01:19:04;;;;;;;5.95;2.90;;;12.30;75.10;;;;;;10360394;28;20033;-60
2022/03/28 01:24:04;;;;;;;5.72;2.92;;;12.30;75.20;;;;;;10364491;28;20166;-60
2022/03/28 01:29:05;;;;;;;5.50;2.63;;;12.30;75.20;;;;;;10364157;28;20038;-61
2022/03/28 01:34:06;;;;;;;6.30;2.92;;;12.30;75.30;;;;;;10361284;28;20128;-61
2022/03/28 01:39:07;;;;;;;4.50;2.38;;;12.20;75.30;;;;;;10365166;28;20026;-60
2022/03/28 01:44:08;;;;;;;5.95;2.67;;;12.20;75.30;;;;;;10366558;28;20033;-60
2022/03/28 01:49:08;;;;;;;5.05;2.47;;;12.20;75.40;;;;;;10366655;28;20125;-61
2022/03/28 01:54:09;;;;;;;4.75;2.47;;;12.20;75.40;;;;;;10363021;28;20041;-60
2022/03/28 01:59:11;;;;;;;4.68;2.25;;;12.10;75.40;;;;;;10355484;28;20366;-61
2022/03/28 02:04:11;;;;;;;3.92;1.80;;;12.10;75.40;;;;;;10363307;28;20128;-61
2022/03/28 02:09:12;;;;;;;3.67;1.60;;;12.20;75.90;;;;;;10362621;28;20204;-61
2022/03/28 02:14:13;;;;;;;3.42;1.92;;;12.10;75.50;;;;;;10363017;28;20328;-61
2022/03/28 02:19:13;;;;;;;3.90;1.70;;;12.10;76.20;;;;;;10362109;28;20029;-60
2022/03/28 02:24:14;;;;;;;3.08;1.60;;;12.00;75.60;;;;;;10361969;28;20030;-61
2022/03/28 02:29:14;;;;;;;2.65;1.48;;;12.00;75.60;;;;;;10361652;28;20041;-61
2022/03/28 02:34:15;;;;;;;2.83;1.40;;;12.00;75.70;;;;;;10358393;28;20041;-61
2022/03/28 02:39:16;;;;;;;2.40;1.08;;;12.00;75.70;;;;;;10362182;28;20392;-60
2022/03/28 02:44:17;;;;;;;3.95;1.75;;;12.00;75.70;;;;;;10363880;28;20042;-60
2022/03/28 02:49:19;;;;;;;1.95;0.93;;;12.00;75.70;;;;;;10354980;28;20029;-60
2022/03/28 02:54:20;;;;;;;2.28;1.10;;;11.90;75.70;;;;;;10358581;28;20046;-58
2022/03/28 02:59:20;;;;;;;2.70;1.10;;;11.90;75.70;;;;;;10351522;28;20307;-61
2022/03/28 03:04:21;;;;;;;2.38;1.00;;;11.90;75.80;;;;;;10362985;28;20038;-61
2022/03/28 03:09:22;;;;;;;2.65;1.40;;;11.90;75.90;;;;;;10360960;28;20103;-61
2022/03/28 03:14:23;;;;;;;2.42;1.30;;;11.90;75.90;;;;;;10361814;28;20033;-60
2022/03/28 03:19:24;;;;;;;2.97;1.40;;;11.80;75.90;;;;;;10360820;28;20032;-60
2022/03/28 03:24:25;;;;;;;3.03;1.20;;;11.80;75.90;;;;;;10360307;28;20485;-60
2022/03/28 03:29:26;;;;;;;1.88;0.88;;;11.80;75.90;;;;;;10360756;28;20324;-59
2022/03/28 03:34:27;;;;;;;2.17;0.95;;;11.80;76.00;;;;;;10358516;28;20026;-60
2022/03/28 03:39:28;;;;;;;3.42;1.00;;;11.80;76.00;;;;;;10360222;28;20022;-61
2022/03/28 03:44:29;;;;;;;1.88;0.90;;;11.80;76.10;;;;;;10361994;28;20391;-61
2022/03/28 03:49:29;;;;;;;2.60;1.23;;;11.70;76.00;;;;;;10360968;28;20024;-61
2022/03/28 03:54:31;;;;;;;3.42;1.35;;;11.70;76.10;;;;;;10359087;28;20038;-60
2022/03/28 03:59:32;;;;;;;2.72;1.20;;;11.70;76.10;;;;;;10355198;28;20496;-60
2022/03/28 04:04:33;;;;;;;2.05;1.13;;;11.70;76.20;;;;;;10341730;28;20045;-59
2022/03/28 04:09:33;;;;;;;3.33;1.50;;;11.70;76.20;;;;;;10346306;28;20570;-60
2022/03/28 04:14:34;;;;;;;3.45;1.30;;;11.70;76.20;;;;;;10360676;28;20038;-61
2022/03/28 04:19:35;;;;;;;3.88;1.67;;;11.60;76.20;;;;;;10349599;28;20365;-61
2022/03/28 04:24:36;;;;;;;4.53;1.48;;;11.60;76.20;;;;;;10357541;28;20034;-61
2022/03/28 04:29:37;;;;;;;4.78;1.85;;;11.60;76.30;;;;;;10357606;28;20076;-61
2022/03/28 04:34:37;;;;;;;4.97;2.05;;;11.60;76.90;;;;;;10361137;28;20034;-60
2022/03/28 04:39:38;;;;;;;4.88;2.10;;;11.60;76.30;;;;;;10359262;28;20049;-61
2022/03/28 04:44:39;;;;;;;4.78;2.22;;;11.60;76.40;;;;;;10360007;28;20034;-61
2022/03/28 04:49:39;;;;;;;3.83;1.92;;;11.60;76.40;;;;;;10358745;28;20112;-60
2022/03/28 04:54:40;;;;;;;5.75;2.45;;;11.50;76.40;;;;;;10364006;28;20388;-60
2022/03/28 04:59:41;;;;;;;7.13;2.90;;;11.50;76.40;;;;;;10355543;28;20037;-60
2022/03/28 05:04:42;;;;;;;6.95;3.00;;;11.50;76.40;;;;;;10368544;28;20129;-60
2022/03/28 05:09:43;;;;;;;6.03;2.90;;;11.50;77.10;;;;;;10365635;28;20100;-60
2022/03/28 05:14:44;;;;;;;7.00;3.10;;;11.50;76.50;;;;;;10365701;28;20033;-61
2022/03/28 05:19:45;;;;;;;8.50;3.53;;;11.50;76.60;;;;;;10365272;28;20389;-60
2022/03/28 05:24:47;;;;;;;9.20;3.58;;;11.40;76.50;;;;;;10365141;28;20038;-61
2022/03/28 05:29:48;;;;;;;7.95;3.67;;;11.40;76.60;;;;;;10364140;28;20034;-59
2022/03/28 05:34:48;;;;;;;8.75;3.70;;;11.50;76.70;;;;;;10358099;28;20397;-62
2022/03/28 05:39:49;;;;;;;11.32;4.63;;;11.40;76.60;;;;;;10364295;28;20049;-59
2022/03/28 05:44:51;;;;;;;7.68;4.03;;;11.40;76.60;;;;;;10366292;28;20037;-60
2022/03/28 05:49:51;;;;;;;12.70;5.55;;;11.40;76.70;;;;;;10364171;28;20037;-60
2022/03/28 05:54:52;;;;;;;11.38;4.95;;;11.40;76.70;;;;;;10365519;28;20115;-59
2022/03/28 05:59:53;;;;;;;13.38;5.63;;;11.40;76.70;;;;;;10363879;28;20033;-60
2022/03/28 06:04:54;;;;;;;13.73;5.93;;;11.40;76.70;;;;;;10365551;28;20140;-58
2022/03/28 06:09:55;;;;;;;13.57;5.70;;;11.40;76.70;;;;;;10364491;28;20414;-59
2022/03/28 06:14:55;;;;;;;14.32;6.13;;;11.40;76.80;;;;;;10364916;28;20434;-60
2022/03/28 06:19:56;;;;;;;14.70;6.20;;;11.30;76.70;;;;;;10363594;28;20627;-60
2022/03/28 06:24:57;;;;;;;11.52;5.47;;;11.30;76.70;;;;;;10362832;28;20026;-58
2022/03/28 06:29:58;;;;;;;12.10;5.80;;;11.30;76.80;;;;;;10363121;28;20515;-59
2022/03/28 06:34:59;;;;;;;15.63;6.45;;;11.30;76.80;;;;;;10359146;28;20042;-60
2022/03/28 06:40:00;;;;;;;15.85;6.75;;;11.30;76.80;;;;;;10363715;28;20029;-60
2022/03/28 06:45:01;;;;;;;15.32;6.22;;;11.30;76.80;;;;;;10364005;28;20026;-60
2022/03/28 06:50:07;;;;;;;13.70;6.25;;;11.30;76.80;;;;;;10363329;28;20052;-61
2022/03/28 06:55:08;;;;;;;15.90;6.38;;;11.30;76.80;;;;;;10359738;28;20017;-59
2022/03/28 07:00:12;;;;;;;15.25;6.78;;;11.30;76.80;;;;;;10350147;28;20048;-60
2022/03/28 07:05:13;;;;;;;13.40;6.35;;;11.30;76.80;;;;;;10356531;28;20049;-60
2022/03/28 07:10:16;;;;;;;14.45;6.10;;;11.30;76.80;;;;;;10360433;28;20104;-59
2022/03/28 07:15:17;;;;;;;13.93;5.55;;;11.30;76.80;;;;;;10361294;28;20704;-60
2022/03/28 07:20:20;;;;;;;14.27;6.32;;;11.30;76.90;;;;;;10359800;28;20030;-61
2022/03/28 07:25:22;;;;;;;13.40;6.07;;;11.30;76.90;;;;;;10361291;28;20022;-59
2022/03/28 07:30:24;;;;;;;12.95;5.90;;;11.30;76.90;;;;;;10357298;28;20046;-59
2022/03/28 07:35:25;;;;;;;12.45;5.68;;;11.30;76.90;;;;;;10357889;28;20076;-61
2022/03/28 07:40:26;;;;;;;13.40;6.10;;;11.30;76.90;;;;;;10361563;28;20034;-59
2022/03/28 07:45:27;;;;;;;14.52;6.35;;;11.30;77.00;;;;;;10362398;28;20034;-61
2022/03/28 07:50:27;;;;;;;14.10;6.25;;;11.30;76.90;;;;;;10363696;28;20423;-59
2022/03/28 07:55:28;;;;;;;12.13;5.78;;;11.30;76.90;;;;;;10360097;28;20022;-60
2022/03/28 08:00:30;;;;;;;13.23;5.93;;;11.30;76.90;;;;;;10349528;28;20026;-61
2022/03/28 08:05:31;;;;;;;13.88;5.65;;;11.30;76.80;;;;;;10361619;28;20084;-60
2022/03/28 08:10:31;;;;;;;12.82;6.18;;;11.40;76.80;;;;;;10359325;28;20143;-59
2022/03/28 08:15:35;;;;;;;13.98;5.68;;;11.30;76.70;;;;;;10360123;28;20083;-60
2022/03/28 08:20:35;;;;;;;12.77;6.43;;;11.40;76.80;;;;;;10356198;28;20027;-61
2022/03/28 08:25:36;;;;;;;12.90;6.43;;;11.40;76.70;;;;;;10361357;28;20034;-59
2022/03/28 08:30:37;;;;;;;12.23;6.03;;;11.40;76.70;;;;;;10364644;28;20034;-59
2022/03/28 08:35:38;;;;;;;13.80;6.10;;;11.40;76.70;;;;;;10365041;28;20034;-61
2022/03/28 08:40:42;;;;;;;11.25;5.70;;;11.40;76.70;;;;;;10369615;28;20029;-60
2022/03/28 08:45:44;;;;;;;11.73;6.00;;;11.40;76.70;;;;;;10369384;28;20488;-61
2022/03/28 08:50:49;;;;;;;13.55;5.72;;;11.40;76.60;;;;;;10368396;28;20534;-61
2022/03/28 08:55:51;;;;;;;9.57;5.32;;;11.50;76.70;;;;;;10376722;28;20022;-59
2022/03/28 09:00:52;;;;;;;11.15;5.93;;;11.50;76.50;;;;;;10355584;28;20061;-61
2022/03/28 09:05:53;;;;;;;11.38;6.10;;;11.50;76.40;;;;;;10366384;28;20037;-61
2022/03/28 09:10:54;;;;;;;13.45;5.88;;;11.50;76.40;;;;;;10367583;28;20559;-59
2022/03/28 09:15:56;;;;;;;10.77;4.85;;;11.50;76.30;;;;;;10366642;28;20105;-60
2022/03/28 09:21:00;;;;;;;12.10;4.85;;;11.60;76.30;;;;;;10363564;28;20018;-61
2022/03/28 09:26:16;;;;;;;11.60;5.50;;;11.60;76.40;;;;;;10367467;28;20030;-61
2022/03/28 09:31:30;;;;;;;10.48;5.13;;;11.50;76.40;;;;;;10362057;28;20042;-59
2022/03/28 09:36:43;;;;;;;8.88;4.63;;;11.50;76.50;;;;;;10361750;28;20029;-59
2022/03/28 09:41:45;;;;;;;9.07;4.55;;;11.50;76.50;;;;;;10365969;28;20022;-60
2022/03/28 09:46:46;;;;;;;9.20;4.85;;;11.50;76.30;;;;;;10366684;28;20046;-59
2022/03/28 09:52:02;;;;;;;9.40;4.70;;;11.60;76.40;;;;;;10363329;28;20038;-59
2022/03/28 09:57:09;;;;;;;7.80;4.32;;;11.60;76.50;;;;;;10366447;28;20030;-58
2022/03/28 10:02:23;;;;;;;10.40;5.18;;;11.60;76.40;;;;;;10353123;28;20034;-59
2022/03/28 10:07:23;;;;;;;8.20;4.43;;;11.60;76.40;;;;;;10361327;28;20444;-61
2022/03/28 10:12:25;;;;;;;9.60;4.80;;;11.60;76.30;;;;;;10365960;28;20033;-59
2022/03/28 10:17:28;;;;;;;8.48;4.38;;;11.60;76.30;;;;;;10361420;28;20019;-59
2022/03/28 10:22:33;;;;;;;9.15;4.40;;;11.70;76.30;;;;;;10363364;28;20116;-61
2022/03/28 10:27:36;;;;;;;7.38;3.65;;;11.70;76.30;;;;;;10364977;28;20026;-59
2022/03/28 10:32:37;;;;;;;8.45;4.22;;;11.70;76.20;;;;;;10358492;28;20527;-59
2022/03/28 10:37:44;;;;;;;7.70;3.78;;;11.70;76.20;;;;;;10362584;28;20109;-61
2022/03/28 10:42:51;;;;;;;7.15;3.83;;;11.80;76.20;;;;;;10365034;28;20026;-61
2022/03/28 10:47:55;;;;;;;7.68;4.05;;;11.80;76.10;;;;;;10364215;28;20105;-60
2022/03/28 10:53:04;;;;;;;6.88;3.88;;;11.90;76.10;;;;;;10360442;28;20691;-60
2022/03/28 10:58:11;;;;;;;7.77;3.43;;;11.90;76.10;;;;;;10361964;28;20037;-60
2022/03/28 11:03:33;;;;;;;6.65;3.35;;;11.90;76.00;;;;;;10353924;28;20450;-60
2022/03/28 11:08:36;;;;;;;7.35;3.42;;;11.90;76.10;;;;;;10360365;28;20049;-58
2022/03/28 11:13:37;;;;;;;6.88;3.38;;;12.00;76.00;;;;;;10363244;28;20132;-60
2022/03/28 11:18:38;;;;;;;6.20;2.90;;;12.00;76.00;;;;;;10357924;28;20040;-61
2022/03/28 11:23:39;;;;;;;6.05;2.97;;;12.00;76.00;;;;;;10360160;28;20078;-62
2022/03/28 11:28:40;;;;;;;5.63;3.17;;;12.10;76.00;;;;;;10360742;28;20113;-59
2022/03/28 11:33:46;;;;;;;5.40;2.78;;;12.10;76.00;;;;;;10360547;28;20241;-61
2022/03/28 11:38:52;;;;;;;6.85;2.72;;;12.10;75.90;;;;;;10360100;28;20113;-60
2022/03/28 11:43:55;;;;;;;6.45;2.60;;;12.10;75.90;;;;;;10362196;28;20025;-60
2022/03/28 11:49:04;;;;;;;6.30;2.80;;;12.20;76.00;;;;;;10362369;28;20028;-60
2022/03/28 11:54:06;;;;;;;;;;;12.20;76.10;;;;;;10359036;28;20403;-60
2022/03/28 11:59:08;;;;;;;6.40;2.67;;;12.10;76.40;;;;;;10351801;28;19912;-59
2022/03/28 12:04:11;;;;;;;6.55;3.42;;;12.20;75.90;;;;;;10358796;28;20369;-60
2022/03/28 12:09:20;;;;;;;5.85;2.90;;;12.20;75.80;;;;;;10358409;28;20058;-60
2022/03/28 12:14:23;;;;;;;4.78;2.92;;;12.40;75.90;;;;;;10358729;28;20512;-61
2022/03/28 12:19:26;;;;;;;8.25;2.42;;;12.40;75.60;;;;;;10358072;28;20034;-60
2022/03/28 12:24:28;;;;;;;5.35;2.88;;;12.50;75.50;;;;;;10357936;28;20030;-61
2022/03/28 12:29:32;;;;;;;4.70;2.75;;;12.50;75.50;;;;;;10357595;28;20026;-60
2022/03/28 12:34:34;;;;;;;7.60;3.35;;;12.60;75.50;;;;;;10354503;28;20442;-60
2022/03/28 12:39:35;;;;;;;7.13;3.13;;;12.70;75.40;;;;;;10358520;28;20026;-60
2022/03/28 12:44:35;;;;;;;5.97;2.95;;;12.70;75.30;;;;;;10360612;28;20042;-59
2022/03/28 12:49:43;;;;;;;6.75;3.17;;;12.70;75.30;;;;;;10359223;28;20021;-59
2022/03/28 12:54:44;;;;;;;6.27;2.83;;;12.70;75.40;;;;;;10358547;28;20038;-61
2022/03/28 12:59:52;;;;;;;6.50;3.08;;;12.80;75.40;;;;;;10348022;28;20030;-60
2022/03/28 13:04:56;;;;;;;9.10;3.65;;;12.80;75.40;;;;;;10360568;28;20029;-61
2022/03/28 13:10:07;;;;;;;7.53;3.05;;;12.90;76.00;;;;;;10357719;28;20521;-58
2022/03/28 13:15:15;;;;;;;6.47;3.42;;;12.90;75.40;;;;;;10362523;28;20026;-61
2022/03/28 13:20:21;;;;;;;6.60;3.08;;;12.90;75.40;;;;;;10366492;28;20490;-59
2022/03/28 13:25:22;;;;;;;8.52;3.30;;;13.00;75.40;;;;;;10367898;28;20033;-60
2022/03/28 13:30:25;;;;;;;5.78;2.90;;;13.10;75.40;;;;;;10362971;28;20062;-60
2022/03/28 13:35:26;;;;;;;5.35;3.03;;;13.10;75.40;;;;;;10362631;28;20030;-61
2022/03/28 13:40:28;;;;;;;6.68;3.22;;;13.10;75.40;;;;;;10367303;28;20045;-60
2022/03/28 13:45:30;;;;;;;5.97;3.03;;;13.20;75.40;;;;;;10367051;28;20026;-59
2022/03/28 13:50:32;;;;;;;10.02;2.78;;;13.20;75.30;;;;;;10366490;28;20052;-61
2022/03/28 13:55:34;;;;;;;5.82;2.75;;;13.30;75.30;;;;;;10364197;28;20045;-61
2022/03/28 14:00:35;;;;;;;6.60;2.88;;;13.40;75.30;;;;;;10353243;28;20056;-61
2022/03/28 14:05:35;;;;;;;5.45;2.70;;;13.50;75.30;;;;;;10365671;28;20483;-61
2022/03/28 14:10:37;;;;;;;6.53;3.00;;;13.60;75.30;;;;;;10363247;28;20054;-62
2022/03/28 14:15:38;;;;;;;6.20;2.63;;;13.60;75.30;;;;;;10364038;28;20116;-61
2022/03/28 14:20:39;;;;;;;4.75;2.60;;;13.70;75.40;;;;;;10360789;28;20113;-61
2022/03/28 14:25:40;;;;;;;5.90;2.80;;;13.90;75.30;;;;;;10374940;28;20030;-61
2022/03/28 14:30:41;;;;;;;5.60;2.60;;;13.90;75.20;;;;;;10367823;28;20034;-60
2022/03/28 14:35:42;;;;;;;5.70;2.50;;;14.00;75.10;;;;;;10360202;28;20479;-62
2022/03/28 14:40:43;;;;;;;5.05;2.65;;;14.20;75.00;;;;;;10351964;28;20030;-61
2022/03/28 14:51:04;;;;;;;4.85;2.65;;;14.40;74.60;;;;;;10363813;28;20172;-61
2022/03/28 14:56:05;;;;;;;6.75;3.10;;;14.60;74.40;;;;;;10367495;28;20029;-60
2022/03/28 15:01:06;;;;;;;5.05;2.67;;;14.70;74.30;;;;;;10362152;28;20045;-60
2022/03/28 15:06:07;;;;;;;4.68;2.70;;;14.70;74.20;;;;;;10360388;28;20385;-61
2022/03/28 15:11:08;;;;;;;7.85;3.40;;;14.80;74.20;;;;;;10364530;28;20042;-61
2022/03/28 15:16:12;;;;;;;6.53;2.80;;;14.80;74.10;;;;;;10377870;28;20051;-60
2022/03/28 15:21:13;;;;;;;6.05;2.78;;;14.90;74.00;;;;;;10352089;28;20106;-61
2022/03/28 15:26:13;;;;;;;7.10;3.00;;;15.00;74.00;;;;;;10355290;28;20041;-62
2022/03/28 15:31:26;;;;;;;6.28;3.10;;;15.00;74.10;;;;;;10359935;28;20045;-61
2022/03/28 15:36:28;;;;;;;6.22;3.33;;;14.90;74.30;;;;;;10355368;28;20118;-59
2022/03/28 15:41:30;;;;;;;6.95;3.47;;;14.90;74.60;;;;;;10362215;28;20104;-61
2022/03/28 15:46:31;;;;;;;4.78;2.95;;;14.90;74.70;;;;;;10360411;28;20022;-59
2022/03/28 15:51:31;;;;;;;8.95;3.92;;;14.80;74.80;;;;;;10359325;28;20049;-61
2022/03/28 15:56:33;;;;;;;7.00;3.30;;;14.80;75.00;;;;;;10361805;28;20033;-63
2022/03/28 16:01:36;;;;;;;6.03;3.20;;;14.80;75.20;;;;;;10348534;28;20442;-60
2022/03/28 16:06:42;;;;;;;6.63;3.35;;;14.80;75.30;;;;;;10358882;28;20298;-59
2022/03/28 16:11:43;;;;;;;6.47;3.60;;;14.80;75.50;;;;;;10361339;28;20053;-61
2022/03/28 16:16:59;;;;;;;11.13;4.65;;;14.70;75.50;;;;;;10359771;28;20026;-61
2022/03/28 16:22:00;;;;;;;6.22;3.30;;;14.80;75.90;;;;;;10358611;28;20124;-61
2022/03/28 16:27:02;;;;;;;5.97;3.42;;;14.80;75.80;;;;;;10360818;28;20030;-61
2022/03/28 16:32:03;;;;;;;4.68;3.17;;;14.70;76.00;;;;;;10354572;28;20057;-60
2022/03/28 16:37:04;;;;;;;6.45;3.70;;;14.70;76.10;;;;;;10358884;28;20404;-62
2022/03/28 16:42:06;;;;;;;6.93;3.65;;;14.70;76.20;;;;;;10360620;28;20034;-62
2022/03/28 16:47:09;;;;;;;8.48;4.18;;;14.70;76.20;;;;;;10345854;28;20034;-61
2022/03/28 16:52:10;;;;;;;8.98;4.60;;;14.70;76.40;;;;;;10360490;28;20061;-62
2022/03/28 16:57:12;;;;;;;9.15;4.07;;;14.70;76.40;;;;;;10368804;28;20032;-61
2022/03/28 17:02:13;;;;;;;10.60;5.75;;;14.60;76.50;;;;;;10354262;28;20523;-61
2022/03/28 17:07:13;;;;;;;9.60;5.35;;;14.50;76.50;;;;;;10365651;28;20037;-62
2022/03/28 17:12:17;;;;;;;12.63;6.57;;;14.50;76.70;;;;;;10368094;28;20128;-61
2022/03/28 17:17:19;;;;;;;11.20;5.85;;;14.50;76.80;;;;;;10364777;28;20739;-62
2022/03/28 17:22:20;;;;;;;11.65;5.38;;;14.40;76.90;;;;;;10367407;28;20068;-62
2022/03/28 17:27:20;;;;;;;14.40;7.00;;;14.40;77.00;;;;;;10365458;28;20033;-61
2022/03/28 17:32:22;;;;;;;13.00;6.72;;;14.30;77.00;;;;;;10363343;28;20095;-61
2022/03/28 17:37:23;;;;;;;14.02;6.95;;;14.30;77.10;;;;;;10365229;28;20041;-61
2022/03/28 17:42:23;;;;;;;14.32;7.35;;;14.20;77.20;;;;;;10366888;28;20415;-58
2022/03/28 17:47:24;;;;;;;11.05;6.28;;;14.20;77.40;;;;;;10366956;28;20029;-62
2022/03/28 17:52:25;;;;;;;14.82;7.07;;;14.10;77.60;;;;;;10365346;28;21289;-61
2022/03/28 17:57:26;;;;;;;15.10;7.78;;;14.10;77.50;;;;;;10366243;28;20496;-62
2022/03/28 18:02:27;;;;;;;13.85;7.05;;;14.10;77.70;;;;;;10352342;28;20083;-62
2022/03/28 18:07:27;;;;;;;11.43;6.80;;;14.00;77.70;;;;;;10363946;28;20049;-61
2022/03/28 18:12:28;;;;;;;10.38;5.93;;;14.00;77.80;;;;;;10365764;28;20535;-61
2022/03/28 18:17:29;;;;;;;12.65;6.32;;;13.90;77.80;;;;;;10364489;28;20354;-62
2022/03/28 18:22:30;;;;;;;11.55;6.20;;;13.90;77.90;;;;;;10365252;28;20034;-61
2022/03/28 18:27:31;;;;;;;11.02;5.75;;;13.90;78.00;;;;;;10365394;28;20037;-60
2022/03/28 18:32:32;;;;;;;13.75;6.55;;;13.80;78.00;;;;;;10361748;28;20551;-62
2022/03/28 18:37:33;;;;;;;11.25;5.82;;;13.80;78.10;;;;;;10362808;28;20038;-62
2022/03/28 18:42:33;;;;;;;13.18;6.85;;;13.70;78.10;;;;;;10364629;28;20037;-60
2022/03/28 18:47:34;;;;;;;11.00;6.80;;;13.70;78.30;;;;;;10359195;28;20330;-62
2022/03/28 18:52:36;;;;;;;11.23;7.07;;;13.60;78.30;;;;;;10360755;28;20508;-61
2022/03/28 18:57:38;;;;;;;12.07;6.78;;;13.60;78.40;;;;;;10352176;28;20104;-61
2022/03/28 19:02:38;;;;;;;11.70;6.70;;;13.50;78.50;;;;;;10343001;28;20548;-61
2022/03/28 19:07:41;;;;;;;10.55;6.88;;;13.50;78.50;;;;;;10367596;28;20041;-62
2022/03/28 19:12:42;;;;;;;10.50;7.22;;;13.40;78.50;;;;;;10362628;28;20073;-61
2022/03/28 19:17:43;;;;;;;12.02;6.72;;;13.40;78.60;;;;;;10359295;28;20045;-61
2022/03/28 19:22:44;;;;;;;13.35;6.75;;;13.40;78.70;;;;;;10362953;28;20061;-61
2022/03/28 19:27:46;;;;;;;12.60;6.55;;;13.30;78.80;;;;;;10362680;28;20383;-61
2022/03/28 19:32:46;;;;;;;11.57;7.25;;;13.30;78.80;;;;;;10366030;28;20132;-60
2022/03/28 19:37:48;;;;;;;11.55;7.25;;;13.20;78.70;;;;;;10369859;28;20057;-62
2022/03/28 19:42:48;;;;;;;11.73;7.32;;;13.20;78.80;;;;;;10363502;28;20053;-61
2022/03/28 19:47:50;;;;;;;12.27;7.35;;;13.20;79.30;;;;;;10367273;28;20053;-62
2022/03/28 19:52:55;;;;;;;11.63;7.18;;;13.10;78.70;;;;;;10360604;28;20037;-62
2022/03/28 19:57:56;;;;;;;15.60;7.75;;;13.10;78.70;;;;;;10354248;28;20072;-61
2022/03/28 20:02:56;;;;;;;12.13;6.93;;;13.10;78.80;;;;;;10362813;28;20100;-62
2022/03/28 20:07:59;;;;;;;12.48;7.28;;;13.10;78.80;;;;;;10359585;28;20038;-59
2022/03/28 20:13:02;;;;;;;11.20;7.03;;;13.00;78.70;;;;;;10359189;28;20437;-61
2022/03/28 20:18:03;;;;;;;11.80;7.63;;;13.00;78.70;;;;;;10356672;28;20041;-60
2022/03/28 20:23:04;;;;;;;12.65;7.63;;;13.00;78.80;;;;;;10358971;28;20116;-60
2022/03/28 20:28:05;;;;;;;12.18;7.88;;;12.90;78.70;;;;;;10362057;28;20380;-62
2022/03/28 20:33:06;;;;;;;13.98;7.60;;;12.90;78.80;;;;;;10356091;28;20034;-61
2022/03/28 20:38:07;;;;;;;15.43;8.68;;;12.90;78.80;;;;;;10358917;28;20026;-62
2022/03/28 20:43:07;;;;;;;13.95;7.90;;;12.90;78.80;;;;;;10360875;28;20036;-62
2022/03/28 20:48:08;;;;;;;14.82;8.10;;;12.80;78.80;;;;;;10360625;28;20474;-59
2022/03/28 20:53:09;;;;;;;16.08;8.63;;;12.80;78.80;;;;;;10357796;28;20046;-60
2022/03/28 20:58:10;;;;;;;19.17;9.25;;;12.80;78.80;;;;;;10357294;28;20030;-61
2022/03/28 21:03:12;;;;;;;17.73;9.32;;;12.80;78.90;;;;;;10353870;28;20018;-62
2022/03/28 21:08:15;;;;;;;16.83;8.70;;;12.70;78.90;;;;;;10357483;28;20140;-59
2022/03/28 21:13:16;;;;;;;16.48;8.57;;;12.70;78.90;;;;;;10360282;28;20109;-59
2022/03/28 21:18:16;;;;;;;16.65;8.77;;;12.70;79.50;;;;;;10355255;28;20117;-62
2022/03/28 21:23:19;;;;;;;13.75;7.78;;;12.70;78.90;;;;;;10357833;28;20476;-60
2022/03/28 21:28:21;;;;;;;17.35;8.38;;;12.70;79.00;;;;;;10359256;28;20055;-61
2022/03/28 21:33:22;;;;;;;17.45;9.43;;;12.60;79.00;;;;;;10354047;28;20038;-60
2022/03/28 21:38:24;;;;;;;17.05;8.85;;;12.60;79.00;;;;;;10364420;28;20048;-62
2022/03/28 21:43:28;;;;;;;13.35;7.72;;;12.60;79.00;;;;;;10366757;28;20022;-60
2022/03/28 21:48:29;;;;;;;15.50;8.82;;;12.60;79.00;;;;;;10366931;28;20030;-61
2022/03/28 21:53:29;;;;;;;14.88;7.97;;;12.50;78.90;;;;;;10364739;28;20396;-62
2022/03/28 21:58:30;;;;;;;16.50;8.60;;;12.50;79.50;;;;;;10364761;28;20022;-61
2022/03/28 22:03:31;;;;;;;16.80;8.40;;;12.50;79.00;;;;;;10370883;28;20019;-61
2022/03/28 22:08:31;;;;;;;15.40;8.57;;;12.50;79.00;;;;;;10364373;28;20038;-62
2022/03/28 22:13:32;;;;;;;17.55;9.13;;;12.50;79.00;;;;;;10365756;28;20038;-62
2022/03/28 22:18:33;;;;;;;15.98;8.70;;;12.40;79.00;;;;;;10362980;28;20026;-62
2022/03/28 22:23:34;;;;;;;16.25;8.73;;;12.40;79.10;;;;;;10364881;28;20034;-61
2022/03/28 22:28:34;;;;;;;15.35;7.82;;;12.40;79.10;;;;;;10364745;28;20563;-62
2022/03/28 22:33:37;;;;;;;18.35;8.48;;;12.40;79.10;;;;;;10361066;28;20037;-61
2022/03/28 22:38:38;;;;;;;15.73;8.07;;;12.40;79.20;;;;;;10365246;28;20037;-60
2022/03/28 22:43:39;;;;;;;17.67;8.82;;;12.40;79.20;;;;;;10367227;28;20020;-62
2022/03/28 22:48:40;;;;;;;13.75;7.80;;;12.30;79.20;;;;;;10365746;28;20034;-60
2022/03/28 22:53:41;;;;;;;17.15;8.68;;;12.30;79.20;;;;;;10361759;28;20034;-59
2022/03/28 22:58:42;;;;;;;17.48;8.60;;;12.30;79.30;;;;;;10356541;28;20420;-60
2022/03/28 23:03:45;;;;;;;18.63;8.50;;;12.30;79.30;;;;;;10361820;28;20540;-61
2022/03/28 23:08:46;;;;;;;14.98;7.82;;;12.30;79.30;;;;;;10361453;28;20060;-61
2022/03/28 23:13:47;;;;;;;15.70;7.55;;;12.20;79.30;;;;;;10362774;28;20042;-60
2022/03/28 23:18:48;;;;;;;15.23;7.60;;;12.20;79.30;;;;;;10359900;28;20396;-61
2022/03/28 23:23:53;;;;;;;19.58;8.00;;;12.20;79.30;;;;;;10361024;28;20018;-61
2022/03/28 23:28:56;;;;;;;15.30;7.55;;;12.20;79.30;;;;;;10361166;28;20392;-61
2022/03/28 23:33:56;;;;;;;17.23;8.02;;;12.20;79.30;;;;;;10359077;28;20045;-61
2022/03/28 23:38:57;;;;;;;15.25;7.90;;;12.20;79.40;;;;;;10360991;28;20037;-59
2022/03/28 23:43:58;;;;;;;17.20;7.80;;;12.10;79.30;;;;;;10363111;28;20136;-61
2022/03/28 23:48:58;;;;;;;19.00;8.40;;;12.10;79.30;;;;;;10363187;28;20022;-60
2022/03/28 23:53:59;;;;;;;15.70;7.90;;;12.10;79.30;;;;;;10357857;28;20485;-62
2022/03/28 23:59:00;;;;;;;19.70;7.80;;;12.10;79.30;;;;;;10352559;28;20034;-60
